EAS weather

San Sebastian Airport
Hondarribia, Basque Country, Spain

Public forecast

Using degrees Celsius for public forecast. Weather courtesy of forecast.io.

Current aviation weather report (METAR) for San Sebastian Airport

Retrieved 2020/04/05 11:00 UTC (4 minutes ago):

LESO 051100Z 17013KT CAVOK 19/06 Q1014

Aviation forecast (TAF) for San Sebastian Airport

Retrieved 2020/04/05 06:27 UTC (5 hours ago):

TAF TAF LESO 050500Z 0506/0606 19009KT CAVOK TX23/0514Z TN08/0606Z TEMPO 0506/0606 20015G25KT PROB30 TEMPO 0506/0524 19018G35KT TEMPO 0600/0606 RA